sensor_id;sensor_type;location;lat;lon;timestamp;P1;durP1;ratioP1;P2;durP2;ratioP2
82296;SDS011;71899;51.992;8.648;2023-09-19T00:00:37;9.18;;;3.92;;
82296;SDS011;71899;51.992;8.648;2023-09-19T00:03:02;7.43;;;3.33;;
82296;SDS011;71899;51.992;8.648;2023-09-19T00:05:29;8.20;;;4.00;;
82296;SDS011;71899;51.992;8.648;2023-09-19T00:08:00;4.43;;;3.17;;
82296;SDS011;71899;51.992;8.648;2023-09-19T00:10:30;9.27;;;3.97;;
82296;SDS011;71899;51.992;8.648;2023-09-19T00:12:56;6.32;;;4.22;;
82296;SDS011;71899;51.992;8.648;2023-09-19T00:15:24;9.68;;;4.30;;
82296;SDS011;71899;51.992;8.648;2023-09-19T00:17:51;6.80;;;3.03;;
82296;SDS011;71899;51.992;8.648;2023-09-19T00:20:17;6.03;;;3.35;;
82296;SDS011;71899;51.992;8.648;2023-09-19T00:22:43;7.97;;;3.15;;
82296;SDS011;71899;51.992;8.648;2023-09-19T00:25:09;8.73;;;3.70;;
82296;SDS011;71899;51.992;8.648;2023-09-19T00:27:37;8.57;;;3.45;;
82296;SDS011;71899;51.992;8.648;2023-09-19T00:30:08;6.70;;;3.42;;
82296;SDS011;71899;51.992;8.648;2023-09-19T00:32:45;8.93;;;3.63;;
82296;SDS011;71899;51.992;8.648;2023-09-19T00:35:15;10.02;;;4.22;;
82296;SDS011;71899;51.992;8.648;2023-09-19T00:37:41;9.55;;;3.83;;
82296;SDS011;71899;51.992;8.648;2023-09-19T00:40:07;8.45;;;3.53;;
82296;SDS011;71899;51.992;8.648;2023-09-19T00:42:43;6.97;;;3.95;;
82296;SDS011;71899;51.992;8.648;2023-09-19T00:45:10;7.05;;;3.20;;
82296;SDS011;71899;51.992;8.648;2023-09-19T00:47:38;6.97;;;4.97;;
82296;SDS011;71899;51.992;8.648;2023-09-19T00:50:05;7.78;;;3.75;;
82296;SDS011;71899;51.992;8.648;2023-09-19T00:52:33;6.68;;;4.35;;
82296;SDS011;71899;51.992;8.648;2023-09-19T00:55:01;5.07;;;3.17;;
82296;SDS011;71899;51.992;8.648;2023-09-19T00:57:27;6.85;;;3.85;;
82296;SDS011;71899;51.992;8.648;2023-09-19T00:59:58;16.33;;;4.47;;
82296;SDS011;71899;51.992;8.648;2023-09-19T01:02:25;13.38;;;4.28;;
82296;SDS011;71899;51.992;8.648;2023-09-19T01:04:55;11.88;;;4.20;;
82296;SDS011;71899;51.992;8.648;2023-09-19T01:07:21;6.40;;;3.83;;
82296;SDS011;71899;51.992;8.648;2023-09-19T01:09:49;13.10;;;4.70;;
82296;SDS011;71899;51.992;8.648;2023-09-19T01:12:16;12.75;;;5.63;;
82296;SDS011;71899;51.992;8.648;2023-09-19T01:14:55;7.82;;;4.43;;
82296;SDS011;71899;51.992;8.648;2023-09-19T01:17:36;8.75;;;4.60;;
82296;SDS011;71899;51.992;8.648;2023-09-19T01:28:39;13.68;;;5.90;;
82296;SDS011;71899;51.992;8.648;2023-09-19T01:31:19;11.95;;;5.63;;
82296;SDS011;71899;51.992;8.648;2023-09-19T01:34:01;10.85;;;5.00;;
82296;SDS011;71899;51.992;8.648;2023-09-19T01:36:30;10.77;;;4.43;;
82296;SDS011;71899;51.992;8.648;2023-09-19T01:39:01;15.15;;;6.97;;
82296;SDS011;71899;51.992;8.648;2023-09-19T01:44:31;7.60;;;5.13;;
82296;SDS011;71899;51.992;8.648;2023-09-19T01:47:19;16.05;;;5.80;;
82296;SDS011;71899;51.992;8.648;2023-09-19T01:50:13;12.40;;;5.07;;
82296;SDS011;71899;51.992;8.648;2023-09-19T01:52:44;8.48;;;5.20;;
82296;SDS011;71899;51.992;8.648;2023-09-19T01:55:13;14.20;;;6.10;;
82296;SDS011;71899;51.992;8.648;2023-09-19T01:57:51;11.85;;;5.97;;
82296;SDS011;71899;51.992;8.648;2023-09-19T02:00:19;11.48;;;5.72;;
82296;SDS011;71899;51.992;8.648;2023-09-19T02:02:47;11.70;;;6.45;;
82296;SDS011;71899;51.992;8.648;2023-09-19T02:05:13;16.08;;;6.32;;
82296;SDS011;71899;51.992;8.648;2023-09-19T02:07:46;11.10;;;6.70;;
82296;SDS011;71899;51.992;8.648;2023-09-19T02:10:11;18.23;;;6.85;;
82296;SDS011;71899;51.992;8.648;2023-09-19T02:12:37;15.68;;;7.25;;
82296;SDS011;71899;51.992;8.648;2023-09-19T02:15:03;14.13;;;6.63;;
82296;SDS011;71899;51.992;8.648;2023-09-19T02:17:32;10.50;;;6.05;;
82296;SDS011;71899;51.992;8.648;2023-09-19T02:19:57;13.38;;;6.30;;
82296;SDS011;71899;51.992;8.648;2023-09-19T02:22:23;9.93;;;5.80;;
82296;SDS011;71899;51.992;8.648;2023-09-19T02:24:50;13.23;;;6.35;;
82296;SDS011;71899;51.992;8.648;2023-09-19T02:27:16;7.60;;;4.93;;
82296;SDS011;71899;51.992;8.648;2023-09-19T02:29:42;12.65;;;6.03;;
82296;SDS011;71899;51.992;8.648;2023-09-19T02:32:08;12.95;;;5.65;;
82296;SDS011;71899;51.992;8.648;2023-09-19T02:34:34;17.20;;;5.35;;
82296;SDS011;71899;51.992;8.648;2023-09-19T02:37:01;11.43;;;4.78;;
82296;SDS011;71899;51.992;8.648;2023-09-19T02:39:30;15.50;;;4.20;;
82296;SDS011;71899;51.992;8.648;2023-09-19T02:41:56;13.43;;;3.58;;
82296;SDS011;71899;51.992;8.648;2023-09-19T02:44:22;9.77;;;3.75;;
82296;SDS011;71899;51.992;8.648;2023-09-19T02:46:49;15.75;;;5.10;;
82296;SDS011;71899;51.992;8.648;2023-09-19T02:49:15;9.35;;;3.53;;
82296;SDS011;71899;51.992;8.648;2023-09-19T02:51:42;10.38;;;3.08;;
82296;SDS011;71899;51.992;8.648;2023-09-19T02:54:08;15.93;;;3.25;;
82296;SDS011;71899;51.992;8.648;2023-09-19T02:56:33;12.65;;;4.43;;
82296;SDS011;71899;51.992;8.648;2023-09-19T02:59:00;21.58;;;5.38;;
82296;SDS011;71899;51.992;8.648;2023-09-19T03:01:26;13.23;;;4.38;;
82296;SDS011;71899;51.992;8.648;2023-09-19T03:03:53;9.68;;;4.25;;
82296;SDS011;71899;51.992;8.648;2023-09-19T03:06:20;9.35;;;3.85;;
82296;SDS011;71899;51.992;8.648;2023-09-19T03:08:46;8.50;;;3.72;;
82296;SDS011;71899;51.992;8.648;2023-09-19T03:11:14;12.07;;;4.38;;
82296;SDS011;71899;51.992;8.648;2023-09-19T03:13:43;13.32;;;3.60;;
82296;SDS011;71899;51.992;8.648;2023-09-19T03:16:11;10.15;;;3.63;;
82296;SDS011;71899;51.992;8.648;2023-09-19T03:18:36;11.40;;;4.78;;
82296;SDS011;71899;51.992;8.648;2023-09-19T03:21:02;8.52;;;3.95;;
82296;SDS011;71899;51.992;8.648;2023-09-19T03:23:28;12.32;;;4.30;;
82296;SDS011;71899;51.992;8.648;2023-09-19T03:25:55;9.45;;;5.05;;
82296;SDS011;71899;51.992;8.648;2023-09-19T03:28:21;9.73;;;3.65;;
82296;SDS011;71899;51.992;8.648;2023-09-19T03:30:57;10.00;;;3.88;;
82296;SDS011;71899;51.992;8.648;2023-09-19T03:33:24;12.45;;;3.97;;
82296;SDS011;71899;51.992;8.648;2023-09-19T03:35:53;10.48;;;4.13;;
82296;SDS011;71899;51.992;8.648;2023-09-19T03:38:19;12.05;;;4.00;;
82296;SDS011;71899;51.992;8.648;2023-09-19T03:40:44;13.02;;;4.28;;
82296;SDS011;71899;51.992;8.648;2023-09-19T03:43:10;11.82;;;3.63;;
82296;SDS011;71899;51.992;8.648;2023-09-19T03:45:35;8.13;;;3.42;;
82296;SDS011;71899;51.992;8.648;2023-09-19T03:48:00;7.90;;;3.30;;
82296;SDS011;71899;51.992;8.648;2023-09-19T03:50:26;15.18;;;4.00;;
82296;SDS011;71899;51.992;8.648;2023-09-19T03:52:56;24.92;;;7.00;;
82296;SDS011;71899;51.992;8.648;2023-09-19T03:55:22;12.10;;;3.38;;
82296;SDS011;71899;51.992;8.648;2023-09-19T03:57:48;14.07;;;3.97;;
82296;SDS011;71899;51.992;8.648;2023-09-19T04:00:14;15.93;;;6.20;;
82296;SDS011;71899;51.992;8.648;2023-09-19T04:02:43;12.13;;;3.78;;
82296;SDS011;71899;51.992;8.648;2023-09-19T04:05:09;12.35;;;2.92;;
82296;SDS011;71899;51.992;8.648;2023-09-19T04:07:35;12.43;;;3.90;;
82296;SDS011;71899;51.992;8.648;2023-09-19T04:10:01;17.73;;;4.15;;
82296;SDS011;71899;51.992;8.648;2023-09-19T04:12:27;10.20;;;2.58;;
82296;SDS011;71899;51.992;8.648;2023-09-19T04:14:53;11.98;;;2.88;;
82296;SDS011;71899;51.992;8.648;2023-09-19T04:17:18;9.73;;;2.42;;
82296;SDS011;71899;51.992;8.648;2023-09-19T04:19:44;17.10;;;3.28;;
82296;SDS011;71899;51.992;8.648;2023-09-19T04:22:10;16.23;;;3.35;;
82296;SDS011;71899;51.992;8.648;2023-09-19T04:24:37;10.02;;;2.55;;
82296;SDS011;71899;51.992;8.648;2023-09-19T04:27:03;12.10;;;2.40;;
82296;SDS011;71899;51.992;8.648;2023-09-19T04:29:29;12.35;;;3.38;;
82296;SDS011;71899;51.992;8.648;2023-09-19T04:31:55;13.50;;;3.40;;
82296;SDS011;71899;51.992;8.648;2023-09-19T04:34:21;9.68;;;2.80;;
82296;SDS011;71899;51.992;8.648;2023-09-19T04:36:47;11.95;;;2.88;;
82296;SDS011;71899;51.992;8.648;2023-09-19T04:39:12;16.90;;;3.63;;
82296;SDS011;71899;51.992;8.648;2023-09-19T04:41:38;12.25;;;3.50;;
82296;SDS011;71899;51.992;8.648;2023-09-19T04:44:05;13.57;;;2.25;;
82296;SDS011;71899;51.992;8.648;2023-09-19T04:46:31;11.45;;;2.28;;
82296;SDS011;71899;51.992;8.648;2023-09-19T04:48:56;10.13;;;2.42;;
82296;SDS011;71899;51.992;8.648;2023-09-19T04:51:22;10.50;;;2.50;;
82296;SDS011;71899;51.992;8.648;2023-09-19T04:53:48;8.57;;;3.40;;
82296;SDS011;71899;51.992;8.648;2023-09-19T04:56:14;7.88;;;2.58;;
82296;SDS011;71899;51.992;8.648;2023-09-19T04:58:40;9.27;;;2.92;;
82296;SDS011;71899;51.992;8.648;2023-09-19T05:01:05;12.93;;;2.95;;
82296;SDS011;71899;51.992;8.648;2023-09-19T05:03:30;13.02;;;2.60;;
82296;SDS011;71899;51.992;8.648;2023-09-19T05:05:56;9.68;;;2.42;;
82296;SDS011;71899;51.992;8.648;2023-09-19T05:08:21;15.65;;;4.43;;
82296;SDS011;71899;51.992;8.648;2023-09-19T05:10:47;17.33;;;3.25;;
82296;SDS011;71899;51.992;8.648;2023-09-19T05:13:13;13.88;;;2.53;;
82296;SDS011;71899;51.992;8.648;2023-09-19T05:15:39;13.43;;;3.03;;
82296;SDS011;71899;51.992;8.648;2023-09-19T05:18:04;14.93;;;3.33;;
82296;SDS011;71899;51.992;8.648;2023-09-19T05:20:31;13.63;;;2.25;;
82296;SDS011;71899;51.992;8.648;2023-09-19T05:23:05;20.65;;;3.75;;
82296;SDS011;71899;51.992;8.648;2023-09-19T05:25:34;13.50;;;3.10;;
82296;SDS011;71899;51.992;8.648;2023-09-19T05:28:07;13.20;;;3.30;;
82296;SDS011;71899;51.992;8.648;2023-09-19T05:30:35;8.20;;;1.85;;
82296;SDS011;71899;51.992;8.648;2023-09-19T05:33:04;13.45;;;2.78;;
82296;SDS011;71899;51.992;8.648;2023-09-19T05:35:30;13.50;;;3.08;;
82296;SDS011;71899;51.992;8.648;2023-09-19T05:37:56;8.25;;;2.45;;
82296;SDS011;71899;51.992;8.648;2023-09-19T05:40:23;13.60;;;2.80;;
82296;SDS011;71899;51.992;8.648;2023-09-19T05:42:49;9.45;;;3.17;;
82296;SDS011;71899;51.992;8.648;2023-09-19T05:45:15;16.55;;;2.97;;
82296;SDS011;71899;51.992;8.648;2023-09-19T05:47:47;19.33;;;4.03;;
82296;SDS011;71899;51.992;8.648;2023-09-19T05:50:12;9.85;;;2.35;;
82296;SDS011;71899;51.992;8.648;2023-09-19T05:52:40;14.15;;;2.78;;
82296;SDS011;71899;51.992;8.648;2023-09-19T05:55:09;14.73;;;4.25;;
82296;SDS011;71899;51.992;8.648;2023-09-19T05:57:35;11.68;;;3.00;;
82296;SDS011;71899;51.992;8.648;2023-09-19T06:00:04;14.13;;;2.05;;
82296;SDS011;71899;51.992;8.648;2023-09-19T06:02:37;14.25;;;3.28;;
82296;SDS011;71899;51.992;8.648;2023-09-19T06:05:04;13.48;;;3.60;;
82296;SDS011;71899;51.992;8.648;2023-09-19T06:07:31;11.35;;;3.42;;
82296;SDS011;71899;51.992;8.648;2023-09-19T06:10:03;10.50;;;2.63;;
82296;SDS011;71899;51.992;8.648;2023-09-19T06:12:30;9.63;;;2.60;;
82296;SDS011;71899;51.992;8.648;2023-09-19T06:14:58;4.38;;;2.60;;
82296;SDS011;71899;51.992;8.648;2023-09-19T06:17:24;12.38;;;2.03;;
82296;SDS011;71899;51.992;8.648;2023-09-19T06:19:49;10.50;;;2.20;;
82296;SDS011;71899;51.992;8.648;2023-09-19T06:22:16;10.75;;;3.13;;
82296;SDS011;71899;51.992;8.648;2023-09-19T06:24:43;12.98;;;2.45;;
82296;SDS011;71899;51.992;8.648;2023-09-19T06:27:09;14.70;;;2.65;;
82296;SDS011;71899;51.992;8.648;2023-09-19T06:29:34;8.68;;;2.50;;
82296;SDS011;71899;51.992;8.648;2023-09-19T06:32:02;6.35;;;3.13;;
82296;SDS011;71899;51.992;8.648;2023-09-19T06:34:31;13.13;;;2.25;;
82296;SDS011;71899;51.992;8.648;2023-09-19T06:36:58;9.55;;;2.80;;
82296;SDS011;71899;51.992;8.648;2023-09-19T06:39:23;8.48;;;2.33;;
82296;SDS011;71899;51.992;8.648;2023-09-19T06:41:51;8.20;;;2.75;;
82296;SDS011;71899;51.992;8.648;2023-09-19T06:44:18;8.05;;;2.35;;
82296;SDS011;71899;51.992;8.648;2023-09-19T06:46:44;10.93;;;2.45;;
82296;SDS011;71899;51.992;8.648;2023-09-19T06:49:11;19.50;;;3.83;;
82296;SDS011;71899;51.992;8.648;2023-09-19T06:51:38;7.32;;;1.88;;
82296;SDS011;71899;51.992;8.648;2023-09-19T06:54:03;9.02;;;1.85;;
82296;SDS011;71899;51.992;8.648;2023-09-19T06:56:30;5.88;;;2.15;;
82296;SDS011;71899;51.992;8.648;2023-09-19T06:58:57;6.80;;;2.22;;
82296;SDS011;71899;51.992;8.648;2023-09-19T07:01:22;13.05;;;2.10;;
82296;SDS011;71899;51.992;8.648;2023-09-19T07:03:47;7.72;;;1.98;;
82296;SDS011;71899;51.992;8.648;2023-09-19T07:06:12;7.97;;;2.17;;
82296;SDS011;71899;51.992;8.648;2023-09-19T07:08:38;10.73;;;2.20;;
82296;SDS011;71899;51.992;8.648;2023-09-19T07:11:03;5.32;;;2.10;;
82296;SDS011;71899;51.992;8.648;2023-09-19T07:13:31;7.55;;;1.88;;
82296;SDS011;71899;51.992;8.648;2023-09-19T07:15:58;8.93;;;2.63;;
82296;SDS011;71899;51.992;8.648;2023-09-19T07:18:24;6.57;;;2.42;;
82296;SDS011;71899;51.992;8.648;2023-09-19T07:20:50;9.73;;;2.30;;
82296;SDS011;71899;51.992;8.648;2023-09-19T07:23:16;5.70;;;1.70;;
82296;SDS011;71899;51.992;8.648;2023-09-19T07:25:43;9.57;;;2.50;;
82296;SDS011;71899;51.992;8.648;2023-09-19T07:28:09;11.30;;;2.80;;
82296;SDS011;71899;51.992;8.648;2023-09-19T07:30:38;9.75;;;3.15;;
82296;SDS011;71899;51.992;8.648;2023-09-19T07:33:04;12.15;;;3.05;;
82296;SDS011;71899;51.992;8.648;2023-09-19T07:35:30;9.60;;;1.90;;
82296;SDS011;71899;51.992;8.648;2023-09-19T07:37:56;13.55;;;3.58;;
82296;SDS011;71899;51.992;8.648;2023-09-19T07:40:21;9.10;;;1.73;;
82296;SDS011;71899;51.992;8.648;2023-09-19T07:42:48;9.65;;;1.80;;
82296;SDS011;71899;51.992;8.648;2023-09-19T07:45:14;8.90;;;2.38;;
82296;SDS011;71899;51.992;8.648;2023-09-19T07:47:40;11.70;;;2.10;;
82296;SDS011;71899;51.992;8.648;2023-09-19T07:50:19;10.52;;;2.97;;
82296;SDS011;71899;51.992;8.648;2023-09-19T07:52:45;6.05;;;2.42;;
82296;SDS011;71899;51.992;8.648;2023-09-19T07:55:11;7.60;;;1.52;;
82296;SDS011;71899;51.992;8.648;2023-09-19T07:57:41;7.85;;;1.70;;
82296;SDS011;71899;51.992;8.648;2023-09-19T08:00:07;6.95;;;1.60;;
82296;SDS011;71899;51.992;8.648;2023-09-19T08:02:38;12.73;;;2.05;;
82296;SDS011;71899;51.992;8.648;2023-09-19T08:05:05;7.25;;;1.85;;
82296;SDS011;71899;51.992;8.648;2023-09-19T08:07:44;6.25;;;1.85;;
82296;SDS011;71899;51.992;8.648;2023-09-19T08:10:17;7.10;;;1.45;;
82296;SDS011;71899;51.992;8.648;2023-09-19T08:12:45;13.35;;;2.25;;
82296;SDS011;71899;51.992;8.648;2023-09-19T08:15:15;11.45;;;2.47;;
82296;SDS011;71899;51.992;8.648;2023-09-19T08:17:41;11.57;;;2.13;;
82296;SDS011;71899;51.992;8.648;2023-09-19T08:20:07;10.10;;;2.55;;
82296;SDS011;71899;51.992;8.648;2023-09-19T08:22:41;6.00;;;1.63;;
82296;SDS011;71899;51.992;8.648;2023-09-19T08:25:08;7.40;;;2.30;;
82296;SDS011;71899;51.992;8.648;2023-09-19T08:27:34;5.75;;;1.65;;
82296;SDS011;71899;51.992;8.648;2023-09-19T08:30:01;6.70;;;2.00;;
82296;SDS011;71899;51.992;8.648;2023-09-19T08:32:28;8.20;;;2.35;;
82296;SDS011;71899;51.992;8.648;2023-09-19T08:34:53;9.20;;;1.67;;
82296;SDS011;71899;51.992;8.648;2023-09-19T08:37:19;8.95;;;1.83;;
82296;SDS011;71899;51.992;8.648;2023-09-19T08:39:44;10.80;;;2.00;;
82296;SDS011;71899;51.992;8.648;2023-09-19T08:42:09;6.03;;;1.95;;
82296;SDS011;71899;51.992;8.648;2023-09-19T08:44:36;9.80;;;2.47;;
82296;SDS011;71899;51.992;8.648;2023-09-19T08:47:09;11.73;;;2.17;;
82296;SDS011;71899;51.992;8.648;2023-09-19T08:52:32;10.07;;;2.22;;
82296;SDS011;71899;51.992;8.648;2023-09-19T08:55:05;7.43;;;2.03;;
82296;SDS011;71899;51.992;8.648;2023-09-19T08:57:33;9.75;;;2.00;;
82296;SDS011;71899;51.992;8.648;2023-09-19T09:00:01;8.18;;;1.98;;
82296;SDS011;71899;51.992;8.648;2023-09-19T09:02:29;8.38;;;2.15;;
82296;SDS011;71899;51.992;8.648;2023-09-19T09:04:59;10.50;;;2.38;;
82296;SDS011;71899;51.992;8.648;2023-09-19T09:07:25;8.50;;;2.30;;
82296;SDS011;71899;51.992;8.648;2023-09-19T09:09:52;8.68;;;2.03;;
82296;SDS011;71899;51.992;8.648;2023-09-19T09:12:18;12.38;;;2.30;;
82296;SDS011;71899;51.992;8.648;2023-09-19T09:14:44;7.70;;;2.05;;
82296;SDS011;71899;51.992;8.648;2023-09-19T09:17:12;7.28;;;2.42;;
82296;SDS011;71899;51.992;8.648;2023-09-19T09:19:37;10.52;;;1.73;;
82296;SDS011;71899;51.992;8.648;2023-09-19T09:22:07;8.43;;;2.28;;
82296;SDS011;71899;51.992;8.648;2023-09-19T09:24:33;10.82;;;2.20;;
82296;SDS011;71899;51.992;8.648;2023-09-19T09:26:59;10.52;;;2.28;;
82296;SDS011;71899;51.992;8.648;2023-09-19T09:29:44;16.42;;;2.38;;
82296;SDS011;71899;51.992;8.648;2023-09-19T09:32:20;12.55;;;2.00;;
82296;SDS011;71899;51.992;8.648;2023-09-19T09:37:23;9.10;;;2.10;;
82296;SDS011;71899;51.992;8.648;2023-09-19T09:39:58;19.30;;;2.70;;
82296;SDS011;71899;51.992;8.648;2023-09-19T09:42:44;10.30;;;2.22;;
82296;SDS011;71899;51.992;8.648;2023-09-19T09:47:54;7.60;;;2.38;;
82296;SDS011;71899;51.992;8.648;2023-09-19T09:50:26;7.63;;;2.83;;
82296;SDS011;71899;51.992;8.648;2023-09-19T09:53:05;8.57;;;2.08;;
82296;SDS011;71899;51.992;8.648;2023-09-19T09:55:57;11.95;;;2.80;;
82296;SDS011;71899;51.992;8.648;2023-09-19T09:58:37;8.60;;;1.80;;
82296;SDS011;71899;51.992;8.648;2023-09-19T10:01:14;5.93;;;1.88;;
82296;SDS011;71899;51.992;8.648;2023-09-19T10:03:41;5.53;;;2.20;;
82296;SDS011;71899;51.992;8.648;2023-09-19T10:06:13;11.88;;;2.75;;
82296;SDS011;71899;51.992;8.648;2023-09-19T10:09:06;7.00;;;2.40;;
82296;SDS011;71899;51.992;8.648;2023-09-19T10:11:37;11.20;;;2.65;;
82296;SDS011;71899;51.992;8.648;2023-09-19T10:14:06;8.20;;;2.20;;
82296;SDS011;71899;51.992;8.648;2023-09-19T10:16:34;10.20;;;1.95;;
82296;SDS011;71899;51.992;8.648;2023-09-19T10:19:02;12.35;;;3.03;;
82296;SDS011;71899;51.992;8.648;2023-09-19T10:21:34;9.50;;;2.80;;
82296;SDS011;71899;51.992;8.648;2023-09-19T10:24:01;13.30;;;1.83;;
82296;SDS011;71899;51.992;8.648;2023-09-19T10:26:34;10.55;;;1.80;;
82296;SDS011;71899;51.992;8.648;2023-09-19T10:29:01;7.20;;;1.88;;
82296;SDS011;71899;51.992;8.648;2023-09-19T10:31:29;6.97;;;2.30;;
82296;SDS011;71899;51.992;8.648;2023-09-19T10:33:58;6.55;;;1.90;;
82296;SDS011;71899;51.992;8.648;2023-09-19T10:36:28;5.80;;;1.85;;
82296;SDS011;71899;51.992;8.648;2023-09-19T10:38:59;12.38;;;2.45;;
82296;SDS011;71899;51.992;8.648;2023-09-19T10:41:29;9.23;;;1.75;;
82296;SDS011;71899;51.992;8.648;2023-09-19T10:43:59;4.13;;;2.15;;
82296;SDS011;71899;51.992;8.648;2023-09-19T10:46:33;9.18;;;2.17;;
82296;SDS011;71899;51.992;8.648;2023-09-19T10:48:59;7.45;;;2.63;;
82296;SDS011;71899;51.992;8.648;2023-09-19T10:51:26;6.32;;;2.60;;
82296;SDS011;71899;51.992;8.648;2023-09-19T10:54:01;11.15;;;2.50;;
82296;SDS011;71899;51.992;8.648;2023-09-19T10:56:33;10.50;;;2.67;;
82296;SDS011;71899;51.992;8.648;2023-09-19T10:59:09;9.45;;;1.80;;
82296;SDS011;71899;51.992;8.648;2023-09-19T11:01:42;5.30;;;1.90;;
82296;SDS011;71899;51.992;8.648;2023-09-19T11:04:20;8.52;;;2.50;;
82296;SDS011;71899;51.992;8.648;2023-09-19T11:07:03;8.48;;;2.13;;
82296;SDS011;71899;51.992;8.648;2023-09-19T11:09:42;11.02;;;2.00;;
82296;SDS011;71899;51.992;8.648;2023-09-19T11:15:06;9.32;;;3.72;;
82296;SDS011;71899;51.992;8.648;2023-09-19T11:17:39;9.63;;;2.25;;
82296;SDS011;71899;51.992;8.648;2023-09-19T11:30:49;9.88;;;1.98;;
82296;SDS011;71899;51.992;8.648;2023-09-19T11:33:28;9.55;;;2.75;;
82296;SDS011;71899;51.992;8.648;2023-09-19T11:36:07;8.43;;;2.35;;
82296;SDS011;71899;51.992;8.648;2023-09-19T11:44:37;11.07;;;1.88;;
82296;SDS011;71899;51.992;8.648;2023-09-19T11:46:54;8.73;;;2.33;;
82296;SDS011;71899;51.992;8.648;2023-09-19T11:49:28;7.45;;;1.92;;
82296;SDS011;71899;51.992;8.648;2023-09-19T11:51:55;12.82;;;2.50;;
82296;SDS011;71899;51.992;8.648;2023-09-19T11:54:21;6.57;;;2.65;;
82296;SDS011;71899;51.992;8.648;2023-09-19T11:56:50;6.50;;;2.03;;
82296;SDS011;71899;51.992;8.648;2023-09-19T11:59:38;10.35;;;2.30;;
82296;SDS011;71899;51.992;8.648;2023-09-19T12:02:04;8.45;;;2.20;;
82296;SDS011;71899;51.992;8.648;2023-09-19T12:04:41;5.07;;;1.75;;
82296;SDS011;71899;51.992;8.648;2023-09-19T12:07:09;7.60;;;2.45;;
82296;SDS011;71899;51.992;8.648;2023-09-19T12:09:50;10.82;;;2.05;;
82296;SDS011;71899;51.992;8.648;2023-09-19T12:12:27;5.53;;;2.28;;
82296;SDS011;71899;51.992;8.648;2023-09-19T12:14:52;9.00;;;2.55;;
82296;SDS011;71899;51.992;8.648;2023-09-19T12:17:19;6.70;;;1.75;;
82296;SDS011;71899;51.992;8.648;2023-09-19T12:19:51;7.70;;;2.15;;
82296;SDS011;71899;51.992;8.648;2023-09-19T12:22:16;8.40;;;2.35;;
82296;SDS011;71899;51.992;8.648;2023-09-19T12:24:43;6.18;;;2.50;;
82296;SDS011;71899;51.992;8.648;2023-09-19T12:27:09;5.55;;;2.25;;
82296;SDS011;71899;51.992;8.648;2023-09-19T12:29:46;4.90;;;2.38;;
82296;SDS011;71899;51.992;8.648;2023-09-19T12:32:16;9.95;;;3.08;;
82296;SDS011;71899;51.992;8.648;2023-09-19T12:34:42;5.18;;;1.88;;
82296;SDS011;71899;51.992;8.648;2023-09-19T12:37:15;9.00;;;2.13;;
82296;SDS011;71899;51.992;8.648;2023-09-19T12:39:46;7.13;;;2.55;;
82296;SDS011;71899;51.992;8.648;2023-09-19T12:42:17;6.75;;;3.15;;
82296;SDS011;71899;51.992;8.648;2023-09-19T12:44:45;9.10;;;1.90;;
82296;SDS011;71899;51.992;8.648;2023-09-19T12:47:12;12.10;;;3.40;;
82296;SDS011;71899;51.992;8.648;2023-09-19T12:52:44;9.13;;;3.75;;
82296;SDS011;71899;51.992;8.648;2023-09-19T12:58:08;6.70;;;2.65;;
82296;SDS011;71899;51.992;8.648;2023-09-19T13:00:41;10.68;;;1.83;;
82296;SDS011;71899;51.992;8.648;2023-09-19T13:03:11;10.05;;;3.63;;
82296;SDS011;71899;51.992;8.648;2023-09-19T13:05:59;4.63;;;1.90;;
82296;SDS011;71899;51.992;8.648;2023-09-19T13:08:31;5.10;;;2.28;;
82296;SDS011;71899;51.992;8.648;2023-09-19T13:13:41;8.85;;;2.38;;
82296;SDS011;71899;51.992;8.648;2023-09-19T13:16:09;6.43;;;2.45;;
82296;SDS011;71899;51.992;8.648;2023-09-19T13:18:44;9.25;;;2.15;;
82296;SDS011;71899;51.992;8.648;2023-09-19T13:21:16;4.88;;;1.58;;
82296;SDS011;71899;51.992;8.648;2023-09-19T13:23:55;6.45;;;1.88;;
82296;SDS011;71899;51.992;8.648;2023-09-19T13:26:25;5.43;;;1.50;;
82296;SDS011;71899;51.992;8.648;2023-09-19T13:28:51;8.30;;;2.10;;
82296;SDS011;71899;51.992;8.648;2023-09-19T13:31:16;9.98;;;2.92;;
82296;SDS011;71899;51.992;8.648;2023-09-19T13:33:42;8.00;;;1.75;;
82296;SDS011;71899;51.992;8.648;2023-09-19T13:36:09;6.75;;;2.55;;
82296;SDS011;71899;51.992;8.648;2023-09-19T13:38:35;6.18;;;1.90;;
82296;SDS011;71899;51.992;8.648;2023-09-19T13:41:00;9.45;;;2.58;;
82296;SDS011;71899;51.992;8.648;2023-09-19T13:43:26;6.13;;;2.53;;
82296;SDS011;71899;51.992;8.648;2023-09-19T13:45:51;5.90;;;1.73;;
82296;SDS011;71899;51.992;8.648;2023-09-19T13:48:17;9.50;;;2.13;;
82296;SDS011;71899;51.992;8.648;2023-09-19T13:50:45;5.72;;;1.60;;
82296;SDS011;71899;51.992;8.648;2023-09-19T13:53:11;8.38;;;1.50;;
82296;SDS011;71899;51.992;8.648;2023-09-19T13:55:37;6.50;;;1.95;;
82296;SDS011;71899;51.992;8.648;2023-09-19T13:58:03;4.80;;;1.35;;
82296;SDS011;71899;51.992;8.648;2023-09-19T14:00:30;5.60;;;1.80;;
82296;SDS011;71899;51.992;8.648;2023-09-19T14:02:59;4.18;;;1.63;;
82296;SDS011;71899;51.992;8.648;2023-09-19T14:05:29;2.92;;;1.48;;
82296;SDS011;71899;51.992;8.648;2023-09-19T14:07:54;5.53;;;1.60;;
82296;SDS011;71899;51.992;8.648;2023-09-19T14:10:21;6.28;;;1.80;;
82296;SDS011;71899;51.992;8.648;2023-09-19T14:12:46;7.43;;;1.75;;
82296;SDS011;71899;51.992;8.648;2023-09-19T14:15:12;6.97;;;1.38;;
82296;SDS011;71899;51.992;8.648;2023-09-19T14:17:39;7.88;;;1.65;;
82296;SDS011;71899;51.992;8.648;2023-09-19T14:20:07;4.38;;;1.42;;
82296;SDS011;71899;51.992;8.648;2023-09-19T14:22:35;7.93;;;1.55;;
82296;SDS011;71899;51.992;8.648;2023-09-19T14:25:01;5.05;;;1.75;;
82296;SDS011;71899;51.992;8.648;2023-09-19T14:27:26;5.43;;;2.47;;
82296;SDS011;71899;51.992;8.648;2023-09-19T14:29:51;4.80;;;1.13;;
82296;SDS011;71899;51.992;8.648;2023-09-19T14:32:16;5.47;;;1.60;;
82296;SDS011;71899;51.992;8.648;2023-09-19T14:34:42;8.43;;;2.35;;
82296;SDS011;71899;51.992;8.648;2023-09-19T14:37:09;3.30;;;1.25;;
82296;SDS011;71899;51.992;8.648;2023-09-19T14:39:36;7.10;;;1.67;;
82296;SDS011;71899;51.992;8.648;2023-09-19T14:42:03;4.18;;;1.45;;
82296;SDS011;71899;51.992;8.648;2023-09-19T14:44:29;5.28;;;1.70;;
82296;SDS011;71899;51.992;8.648;2023-09-19T14:46:54;6.22;;;1.65;;
82296;SDS011;71899;51.992;8.648;2023-09-19T14:49:20;4.88;;;1.50;;
82296;SDS011;71899;51.992;8.648;2023-09-19T14:51:45;5.40;;;1.45;;
82296;SDS011;71899;51.992;8.648;2023-09-19T14:54:12;6.78;;;2.13;;
82296;SDS011;71899;51.992;8.648;2023-09-19T14:56:37;12.75;;;2.00;;
82296;SDS011;71899;51.992;8.648;2023-09-19T14:59:03;5.65;;;1.60;;
82296;SDS011;71899;51.992;8.648;2023-09-19T15:01:28;5.03;;;2.00;;
82296;SDS011;71899;51.992;8.648;2023-09-19T15:03:54;10.15;;;2.28;;
82296;SDS011;71899;51.992;8.648;2023-09-19T15:06:20;5.40;;;1.38;;
82296;SDS011;71899;51.992;8.648;2023-09-19T15:08:46;6.97;;;1.88;;
82296;SDS011;71899;51.992;8.648;2023-09-19T15:11:13;3.75;;;1.90;;
82296;SDS011;71899;51.992;8.648;2023-09-19T15:13:41;5.85;;;1.42;;
82296;SDS011;71899;51.992;8.648;2023-09-19T15:16:07;16.58;;;2.85;;
82296;SDS011;71899;51.992;8.648;2023-09-19T15:18:34;5.95;;;1.73;;
82296;SDS011;71899;51.992;8.648;2023-09-19T15:21:12;2.53;;;1.85;;
82296;SDS011;71899;51.992;8.648;2023-09-19T15:23:38;2.35;;;1.20;;
82296;SDS011;71899;51.992;8.648;2023-09-19T15:26:09;5.88;;;1.90;;
82296;SDS011;71899;51.992;8.648;2023-09-19T15:28:36;7.32;;;2.25;;
82296;SDS011;71899;51.992;8.648;2023-09-19T15:31:07;4.65;;;1.90;;
82296;SDS011;71899;51.992;8.648;2023-09-19T15:33:34;6.40;;;1.48;;
82296;SDS011;71899;51.992;8.648;2023-09-19T15:36:06;7.00;;;1.85;;
82296;SDS011;71899;51.992;8.648;2023-09-19T15:41:25;6.55;;;1.52;;